Flight Track Log - Related Links

Times and Time Zones

All times are in EST time to prevent confusion due to time zone crossing. See the N54PT flight status page for this flight to view local times or setup timezone preferences in your user account.

Time Position Orientation Groundspeed Altitude Reporting Facility
EST Latitude Longitude Course Direction KTS MPH feet Rate Location/Type
Mon 04:18:23 PM 37.7944 -122.2794 321° Northwest 144 166 2,700  Level Oakland Center
Mon 04:19:24 PM 37.8397 -122.3008 340° North 163 188 3,600 1,122 Climbing Oakland Center
Mon 04:20:26 PM 37.8864 -122.3061 355° North 168 193 5,000 1,317 Climbing Oakland Center
Mon 04:21:27 PM 37.9439 -122.3183 350° North 173 199 6,300 1,180 Climbing Oakland Center
Mon 04:22:00 PM 38.1585 -122.2494 357° North  Level Estimated
Mon 04:22:28 PM 37.9958 -122.3281 352° North 186 214 7,400  Level Oakland Center
Mon 04:23:30 PM 38.0453 -122.3447 345° North 186 214 8,600 1,171 Climbing Oakland Center
Mon 04:24:31 PM 38.0947 -122.3561 350° North 182 209 9,800 1,131 Climbing Oakland Center
Mon 04:25:32 PM 38.1464 -122.3658 352° North 188 216 10,900 634 Climbing Oakland Center
Mon 04:26:34 PM 38.2056 -122.3706 356° North 212 244 11,100 98 Climbing Oakland Center
Mon 04:27:35 PM 38.2750 -122.3644 North 245 282 11,100 -49 Level Oakland Center
Mon 04:28:36 PM 38.3472 -122.3589 North 258 297 11,000 195 Descending Oakland Center
Mon 04:29:38 PM 38.4333 -122.3517 North 259 298 11,500 585 Climbing Oakland Center
Mon 04:30:39 PM 38.5006 -122.3464 North 246 283 12,200 780 Climbing Oakland Center
Mon 04:31:41 PM 38.5656 -122.3411 North 236 272 13,100 878 Climbing Oakland Center
Mon 04:32:42 PM 38.6306 -122.3350 North 234 269 14,000 885 Climbing Oakland Center
Mon 04:33:43 PM 38.7014 -122.3286 North 230 265 14,900 780 Climbing Oakland Center
Mon 04:34:45 PM 38.7656 -122.3283 360° North 230 265 15,600 732 Climbing Oakland Center
Mon 04:35:46 PM 38.8286 -122.3328 357° North 226 260 16,400 683 Climbing Oakland Center
Mon 04:36:48 PM 38.8914 -122.3369 357° North 225 259 17,000 585 Climbing Oakland Center
Mon 04:37:49 PM 38.9550 -122.3425 356° North 228 262 17,600 537 Climbing Oakland Center
Mon 04:38:51 PM 39.0203 -122.3456 358° North 233 268 18,100 585 Climbing Oakland Center
Mon 04:39:52 PM 39.0836 -122.3494 357° North 229 264 18,800 585 Climbing Oakland Center
Mon 04:40:54 PM 39.1461 -122.3544 356° North 226 260 19,300 537 Climbing Oakland Center
Mon 04:41:55 PM 39.2108 -122.3575 358° North 230 265 19,900 341 Climbing Oakland Center
Mon 04:42:57 PM 39.2758 -122.3619 357° North 233 268 20,000 49 Climbing Oakland Center
Mon 04:43:58 PM 39.3583 -122.3669 357° North 246 283 20,000  Level Oakland Center
Mon 04:45:00 PM 39.4300 -122.3703 358° North 255 293 20,000  Level Oakland Center
Mon 04:46:01 PM 39.4933 -122.3753 357° North 257 296 20,000  Level Oakland Center
Mon 04:47:03 PM 39.5642 -122.3792 358° North 255 293 20,000  Level Oakland Center
Mon 04:48:04 PM 39.6494 -122.3847 357° North 257 296 20,000  Level Oakland Center
Mon 04:49:06 PM 39.7211 -122.3883 358° North 257 296 20,000  Level Oakland Center
Mon 04:50:07 PM 39.7922 -122.3942 356° North 257 296 20,000  Level Oakland Center
Mon 04:51:09 PM 39.8631 -122.3981 358° North 255 293 20,000  Level Oakland Center
Mon 04:52:11 PM 39.9347 -122.4022 357° North 257 296 20,000  Level Oakland Center
Mon 04:53:12 PM 40.0047 -122.4072 357° North 253 291 20,000  Level Oakland Center
Mon 04:54:13 PM 40.0764 -122.4125 357° North 253 291 20,000  Level Oakland Center
Mon 04:55:15 PM 40.1506 -122.4175 357° North 259 298 20,000  Level Oakland Center
Mon 04:56:16 PM 40.2239 -122.4222 357° North 259 298 20,000  Level Oakland Center
Mon 04:57:18 PM 40.2950 -122.4258 358° North 256 295 20,000  Level Oakland Center
Mon 04:58:19 PM 40.3667 -122.4306 357° North 257 296 20,000  Level Oakland Center
Mon 04:59:21 PM 40.4517 -122.4356 357° North 255 293 20,000  Level Oakland Center
Mon 05:00:22 PM 40.5222 -122.4403 357° North 255 293 20,000  Level Oakland Center
Mon 05:01:24 PM 40.5939 -122.4450 357° North 256 295 20,000  Level Oakland Center
Mon 05:02:25 PM 40.6653 -122.4492 357° North 258 297 20,000  Level Oakland Center
Mon 05:03:27 PM 40.7369 -122.4542 357° North 258 297 20,000  Level Oakland Center
Mon 05:04:28 PM 40.8092 -122.4567 358° North 258 297 20,000  Level Oakland Center
Mon 05:05:30 PM 40.8806 -122.4617 357° North 257 296 20,000  Level Oakland Center
Mon 05:06:31 PM 40.9533 -122.4667 357° North 261 300 20,000  Level Oakland Center
Mon 05:07:32 PM 41.0253 -122.4703 358° North 259 298 20,000  Level Oakland Center
Mon 05:08:34 PM 41.1128 -122.4806 355° North 263 303 20,000 -49 Level Oakland Center
Mon 05:09:35 PM 41.1844 -122.4842 358° North 260 299 19,900  Descending Oakland Center
Mon 05:10:37 PM 41.2572 -122.4892 357° North 262 302 20,000 49 Climbing Oakland Center
Mon 05:11:38 PM 41.3286 -122.4939 357° North 257 296 20,000  Level Oakland Center
Mon 05:12:40 PM 41.4083 -122.4964 359° North 261 300 20,000 -49 Level Oakland Center
Mon 05:13:41 PM 41.4811 -122.5028 356° North 263 303 19,900  Descending Oakland Center
Mon 05:14:43 PM 41.5533 -122.5075 357° North 260 299 20,000 49 Climbing Oakland Center
Mon 05:15:44 PM 41.6278 -122.5119 357° North 265 305 20,000  Level Oakland Center
Mon 05:16:54 PM 41.7161 -122.5186 357° North 263 303 20,000  Level Seattle Center
Mon 05:17:55 PM 41.7906 -122.5244 357° North 266 306 20,000  Level Seattle Center
Mon 05:18:56 PM 41.8636 -122.5297 357° North 264 304 20,000  Level Seattle Center
Mon 05:19:57 PM 41.9372 -122.5333 358° North 264 304 20,000  Level Seattle Center
Mon 05:20:58 PM 42.0100 -122.5369 358° North 262 302 20,000  Level Seattle Center
Mon 05:21:59 PM 42.0847 -122.5428 357° North 266 306 20,000  Level Seattle Center
Mon 05:23:00 PM 42.1600 -122.5458 358° North 269 310 20,000  Level Seattle Center
Mon 05:24:00 PM 42.2294 -122.5525 356° North 255 293 20,000  Level Seattle Center
Mon 05:25:01 PM 42.3036 -122.5569 357° North 261 300 20,000  Level Seattle Center
Mon 05:26:02 PM 42.3772 -122.5617 357° North 263 303 20,000 -49 Level Seattle Center
Mon 05:27:03 PM 42.4519 -122.5661 357° North 267 307 19,900  Descending Seattle Center
Mon 05:28:04 PM 42.5272 -122.5714 357° North 270 311 20,000 49 Climbing Seattle Center
Mon 05:29:05 PM 42.6019 -122.5764 357° North 270 311 20,000  Level Seattle Center
Mon 05:30:06 PM 42.6781 -122.5806 358° North 274 315 20,000  Level Seattle Center
Mon 05:31:07 PM 42.7650 -122.5878 357° North 268 308 20,000  Level Seattle Center
Mon 05:32:08 PM 42.8397 -122.5917 358° North 269 310 20,000  Level Seattle Center
Mon 05:33:09 PM 42.9133 -122.5989 356° North 267 307 20,000  Level Seattle Center
Mon 05:34:10 PM 42.9878 -122.6033 357° North 268 308 20,000  Level Seattle Center
Mon 05:35:10 PM 43.0636 -122.6078 358° North 274 315 20,000  Level Seattle Center
Mon 05:36:11 PM 43.1381 -122.6144 356° North 270 311 20,000  Level Seattle Center
Mon 05:37:12 PM 43.2147 -122.6203 357° North 276 318 20,000  Level Seattle Center
Mon 05:38:13 PM 43.2900 -122.6264 357° North 275 316 20,000  Level Seattle Center
Mon 05:39:14 PM 43.3664 -122.6303 358° North 277 319 20,000  Level Seattle Center
Mon 05:40:15 PM 43.4411 -122.6369 356° North 273 314 20,000  Level Seattle Center
Mon 05:41:16 PM 43.5169 -122.6419 357° North 273 314 20,000  Level Seattle Center
Mon 05:42:17 PM 43.5925 -122.6461 358° North 273 314 20,000  Level Seattle Center
Mon 05:43:18 PM 43.6667 -122.6519 357° North 269 310 20,000  Level Seattle Center
Mon 05:44:19 PM 43.7569 -122.6583 357° North 270 311 20,000  Level Seattle Center
Mon 05:45:20 PM 43.8319 -122.6633 357° North 271 312 20,000  Level Seattle Center
Mon 05:46:21 PM 43.9072 -122.6694 357° North 272 313 20,000  Level Seattle Center
Mon 05:47:22 PM 43.9822 -122.6747 357° North 272 313 20,000  Level Seattle Center
Mon 05:48:23 PM 44.0556 -122.6806 357° North 266 306 20,000 -148 Level Seattle Center
Mon 05:49:24 PM 44.1308 -122.6894 355° North 273 314 19,700 -843 Descending Seattle Center
Mon 05:50:24 PM 44.2056 -122.7336 337° Northwest 293 337 18,300 -1,140 Descending Seattle Center
Mon 05:51:25 PM 44.2850 -122.7733 340° North 307 353 17,400 -836 Descending Seattle Center
Mon 05:52:26 PM 44.3583 -122.8067 342° North 290 334 16,600 -885 Descending Seattle Center
Mon 05:53:27 PM 44.4317 -122.8433 340° North 282 325 15,600 -836 Descending Seattle Center
Mon 05:54:28 PM 44.5117 -122.8336 North 289 333 14,900 -787 Descending Seattle Center
Mon 05:55:29 PM 44.6053 -122.8264 North 283 326 14,000 -885 Descending Seattle Center
Mon 05:56:30 PM 44.6847 -122.8189 North 289 333 13,100 -787 Descending Seattle Center
Mon 05:57:31 PM 44.7650 -122.8136 North 290 334 12,400 -738 Descending Seattle Center
Mon 05:58:32 PM 44.8444 -122.8058 North 290 334 11,600 -1,033 Descending Seattle Center
Mon 05:59:33 PM 44.9217 -122.7986 North 281 323 10,300 -1,279 Descending Seattle Center

Login

Don't have an account? Register now (free) for customized features, flight alerts, and more!